CheckWX is a tool to help pilots better visualize weather data.  It is not intended as a substitute for an official pre-flight weather briefing.

21:46:57 UTC

KGUP METAR
Gallup Municipal Airport
Gallup, New Mexico, USA
Current

54 mins ago

KGUP 082053Z AUTO 21009KT 10SM FEW100 21/M08 A3009 RMK AO2 SLP111 T02061078 58023
Observed
Apr-8 @ 20:53 UTC
Wind
  • 210° at 9 KTS
Visibility
Flight Rules
VFR
Cloud Levels
  • Few at 10,000' AGL
Temperature
21°C / 70°F
Dewpoint
-8°C / 18°F
Humidity
13%
Altimeter
30.09" Hg
Pressure
1018.92 hPa
Previous

2 hours ago

KGUP 081953Z AUTO 21007G16KT 10SM CLR 19/M06 A3012 RMK AO2 SLP122 T01891061
Observed
Apr-8 @ 19:53 UTC
Wind
  • 210° at 7 KTS
  • Gusting to 16 KTS
Visibility
Flight Rules
VFR
Cloud Levels
  • Clear skies
Temperature
19°C / 66°F
Dewpoint
-6°C / 21°F
Humidity
18%
Altimeter
30.12" Hg
Pressure
1020.02 hPa
Previous

3 hours ago

KGUP 081853Z AUTO 19013G18KT 10SM SCT080 19/M04 A3014 RMK AO2 SLP130 T01891044
Observed
Apr-8 @ 18:53 UTC
Wind
  • 190° at 13 KTS
  • Gusting to 18 KTS
Visibility
Flight Rules
VFR
Cloud Levels
  • Scattered at 8,000' AGL
Temperature
19°C / 66°F
Dewpoint
-4°C / 25°F
Humidity
21%
Altimeter
30.14" Hg
Pressure
1020.62 hPa